createdAt,value
2018-08-12T00:00:31.072Z,4.00
2018-08-12T00:01:31.062Z,4.00
2018-08-12T00:02:31.044Z,4.00
2018-08-12T00:03:31.041Z,4.00
2018-08-12T00:04:31.009Z,4.00
2018-08-12T00:05:31.044Z,4.00
2018-08-12T00:06:30.988Z,4.00
2018-08-12T00:07:30.964Z,4.00
2018-08-12T00:08:30.970Z,4.00
2018-08-12T00:09:30.942Z,4.00
2018-08-12T00:10:30.928Z,4.00
2018-08-12T00:11:30.909Z,4.00
2018-08-12T00:12:30.888Z,4.00
2018-08-12T00:13:30.870Z,4.00
2018-08-12T00:14:30.856Z,4.00
2018-08-12T00:15:30.847Z,4.00
2018-08-12T00:16:30.825Z,4.00
2018-08-12T00:17:30.809Z,4.00
2018-08-12T00:18:30.849Z,4.00
2018-08-12T00:19:30.779Z,4.00
2018-08-12T00:20:30.764Z,4.00
2018-08-12T00:21:30.816Z,4.00
2018-08-12T00:22:30.740Z,4.00
2018-08-12T00:23:30.720Z,4.00
2018-08-12T00:24:30.704Z,4.00
2018-08-12T00:25:30.685Z,4.00
2018-08-12T00:26:30.674Z,4.00
2018-08-12T00:27:30.657Z,4.00
2018-08-12T00:28:30.646Z,4.00
2018-08-12T00:29:30.628Z,4.00
2018-08-12T00:30:30.608Z,4.00
2018-08-12T00:31:30.606Z,4.00
2018-08-12T00:32:30.583Z,4.00
2018-08-12T00:33:30.562Z,4.00
2018-08-12T00:34:30.549Z,4.00
2018-08-12T00:35:30.532Z,4.00
2018-08-12T00:36:30.517Z,4.00
2018-08-12T00:37:30.509Z,4.00
2018-08-12T00:38:30.488Z,4.00
2018-08-12T00:39:30.473Z,4.00
2018-08-12T00:40:30.454Z,4.00
2018-08-12T00:41:30.440Z,4.00
2018-08-12T00:42:30.425Z,4.00
2018-08-12T00:43:30.420Z,4.00
2018-08-12T00:44:30.394Z,4.00
2018-08-12T00:45:30.389Z,4.00
2018-08-12T00:46:30.364Z,4.00
2018-08-12T00:47:30.347Z,4.00
2018-08-12T00:48:30.411Z,4.00
2018-08-12T00:49:30.317Z,4.00
2018-08-12T00:50:30.309Z,4.00
2018-08-12T00:51:30.286Z,4.00
2018-08-12T00:52:30.271Z,4.00
2018-08-12T00:53:30.253Z,4.00
2018-08-12T00:54:30.243Z,4.00
2018-08-12T00:55:30.226Z,4.00
2018-08-12T00:56:30.210Z,4.00
2018-08-12T00:57:30.193Z,4.00
2018-08-12T00:58:30.185Z,4.00
2018-08-12T00:59:30.167Z,4.00
2018-08-12T01:00:30.151Z,4.00
2018-08-12T01:01:30.130Z,4.00
2018-08-12T01:02:30.121Z,4.00
2018-08-12T01:03:30.101Z,4.00
2018-08-12T01:04:30.146Z,4.00
2018-08-12T01:05:30.067Z,4.00
2018-08-12T01:06:30.063Z,4.00
2018-08-12T01:07:30.195Z,4.00
2018-08-12T01:08:30.026Z,4.00
2018-08-12T01:09:30.009Z,4.00
2018-08-12T01:10:29.993Z,4.00
2018-08-12T01:11:29.979Z,4.00
2018-08-12T01:12:29.959Z,4.00
2018-08-12T01:13:29.951Z,4.00
2018-08-12T01:14:29.928Z,4.00
2018-08-12T01:15:29.914Z,4.00
2018-08-12T01:16:29.899Z,4.00
2018-08-12T01:17:29.881Z,4.00
2018-08-12T01:18:29.869Z,4.00
2018-08-12T01:19:29.850Z,4.00
2018-08-12T01:20:29.850Z,4.00
2018-08-12T01:21:29.816Z,4.00
2018-08-12T01:22:29.811Z,4.00
2018-08-12T01:23:29.790Z,4.00
2018-08-12T01:24:29.776Z,4.00
2018-08-12T01:25:29.758Z,4.00
2018-08-12T01:26:29.748Z,4.00
2018-08-12T01:27:29.739Z,4.00
2018-08-12T01:28:29.708Z,4.00
2018-08-12T01:29:29.697Z,4.00
2018-08-12T01:30:29.686Z,4.00
2018-08-12T01:31:29.681Z,4.00
2018-08-12T01:32:29.647Z,4.00
2018-08-12T01:33:29.631Z,4.00
2018-08-12T01:34:29.630Z,4.00
2018-08-12T01:35:29.605Z,4.00
2018-08-12T01:36:29.593Z,4.00
2018-08-12T01:37:29.576Z,4.00
2018-08-12T01:38:29.559Z,4.00
2018-08-12T01:39:29.535Z,4.00
2018-08-12T01:40:29.521Z,4.00
2018-08-12T01:41:29.511Z,4.00
2018-08-12T01:42:29.489Z,4.00
2018-08-12T01:43:29.474Z,4.00
2018-08-12T01:44:29.458Z,4.00
2018-08-12T01:45:29.440Z,4.00
2018-08-12T01:46:29.426Z,4.00
2018-08-12T01:47:29.411Z,4.00
2018-08-12T01:48:29.398Z,4.00
2018-08-12T01:49:29.378Z,4.00
2018-08-12T01:50:29.434Z,4.00
2018-08-12T01:51:29.349Z,4.00
2018-08-12T01:52:29.334Z,4.00
2018-08-12T01:53:29.424Z,4.00
2018-08-12T01:54:29.299Z,4.00
2018-08-12T01:55:29.283Z,4.00
2018-08-12T01:56:29.319Z,4.00
2018-08-12T01:57:29.254Z,4.00
2018-08-12T01:58:29.235Z,4.00
2018-08-12T01:59:29.232Z,4.00
2018-08-12T02:00:29.206Z,4.00
2018-08-12T02:01:29.189Z,4.00
2018-08-12T02:02:29.174Z,4.00
2018-08-12T02:03:29.165Z,4.00
2018-08-12T02:04:29.150Z,4.00
2018-08-12T02:05:29.123Z,4.00
2018-08-12T02:06:29.117Z,4.00
2018-08-12T02:07:29.093Z,4.00
2018-08-12T02:08:29.077Z,4.00
2018-08-12T02:09:29.197Z,4.00
2018-08-12T02:10:29.047Z,4.00
2018-08-12T02:11:29.031Z,4.00
2018-08-12T02:12:29.025Z,4.00
2018-08-12T02:13:29.315Z,4.00
2018-08-12T02:14:28.981Z,4.00
2018-08-12T02:15:28.964Z,4.00
2018-08-12T02:16:28.949Z,4.00
2018-08-12T02:17:29.060Z,4.00
2018-08-12T02:18:28.925Z,4.00
2018-08-12T02:19:28.902Z,4.00
2018-08-12T02:20:28.986Z,4.00
2018-08-12T02:21:28.868Z,4.00
2018-08-12T02:22:28.864Z,4.00
2018-08-12T02:23:28.843Z,4.00
2018-08-12T02:24:28.820Z,4.00
2018-08-12T02:25:28.808Z,4.00
2018-08-12T02:26:28.791Z,4.00
2018-08-12T02:27:28.801Z,4.00
2018-08-12T02:28:28.772Z,4.00
2018-08-12T02:29:28.750Z,4.00
2018-08-12T02:30:28.728Z,4.00
2018-08-12T02:31:28.710Z,4.00
2018-08-12T02:32:28.693Z,4.00
2018-08-12T02:33:28.683Z,4.00
2018-08-12T02:34:28.661Z,4.00
2018-08-12T02:35:28.643Z,4.00
2018-08-12T02:36:28.717Z,4.00
2018-08-12T02:37:28.613Z,4.00
2018-08-12T02:38:28.595Z,4.00
2018-08-12T02:39:28.579Z,4.00
2018-08-12T02:40:28.561Z,4.00
2018-08-12T02:41:28.550Z,4.00
2018-08-12T02:42:28.534Z,4.00
2018-08-12T02:43:28.517Z,4.00
2018-08-12T02:44:28.501Z,4.00
2018-08-12T02:45:28.483Z,4.00
2018-08-12T02:46:28.469Z,4.00
2018-08-12T02:47:28.452Z,4.00
2018-08-12T02:48:28.440Z,4.00
2018-08-12T02:49:28.419Z,4.00
2018-08-12T02:50:28.403Z,4.00
2018-08-12T02:51:28.387Z,4.00
2018-08-12T02:52:28.370Z,4.00
2018-08-12T02:53:28.372Z,4.00
2018-08-12T02:54:28.342Z,4.00
2018-08-12T02:55:28.485Z,4.00
2018-08-12T02:56:28.308Z,4.00
2018-08-12T02:57:28.293Z,4.00
2018-08-12T02:58:28.277Z,4.00
2018-08-12T02:59:28.257Z,4.00
2018-08-12T03:00:28.245Z,4.00
2018-08-12T03:01:28.277Z,4.00
2018-08-12T03:02:28.210Z,4.00
2018-08-12T03:03:28.194Z,4.00
2018-08-12T03:04:28.180Z,4.00
2018-08-12T03:05:28.160Z,4.00
2018-08-12T03:06:28.245Z,4.00
2018-08-12T03:07:28.129Z,4.00
2018-08-12T03:08:28.111Z,4.00
2018-08-12T03:09:28.096Z,4.00
2018-08-12T03:10:28.081Z,4.00
2018-08-12T03:11:28.067Z,4.00
2018-08-12T03:12:28.047Z,4.00
2018-08-12T03:13:28.034Z,4.00
2018-08-12T03:14:28.015Z,4.00
2018-08-12T03:15:28.001Z,4.00
2018-08-12T03:16:27.985Z,4.00
2018-08-12T03:17:27.964Z,4.00
2018-08-12T03:18:27.950Z,4.00
2018-08-12T03:19:27.941Z,4.00
2018-08-12T03:20:27.918Z,4.00
2018-08-12T03:21:27.901Z,4.00
2018-08-12T03:22:28.044Z,4.00
2018-08-12T03:23:27.871Z,4.00
2018-08-12T03:24:27.854Z,4.00
2018-08-12T03:25:27.905Z,8.00
2018-08-12T03:26:27.836Z,4.00
2018-08-12T03:27:27.811Z,4.00
2018-08-12T03:28:27.787Z,4.00
2018-08-12T03:29:27.769Z,4.00
2018-08-12T03:30:27.753Z,4.00
2018-08-12T03:31:27.739Z,4.00
2018-08-12T03:32:27.723Z,4.00
2018-08-12T03:33:27.704Z,8.00
2018-08-12T03:34:27.689Z,8.00
2018-08-12T03:35:27.725Z,4.00
2018-08-12T03:36:27.657Z,8.00
2018-08-12T03:37:27.648Z,8.00
2018-08-12T03:38:27.627Z,8.00
2018-08-12T03:39:27.606Z,8.00
2018-08-12T03:40:27.593Z,8.00
2018-08-12T03:41:27.584Z,12.00
2018-08-12T03:42:27.555Z,12.00
2018-08-12T03:43:27.544Z,12.00
2018-08-12T03:44:27.616Z,16.00
2018-08-12T03:45:27.505Z,16.00
2018-08-12T03:46:27.488Z,20.00
2018-08-12T03:47:27.472Z,24.00
2018-08-12T03:48:27.458Z,28.00
2018-08-12T03:49:27.450Z,32.00
2018-08-12T03:50:27.424Z,28.00
2018-08-12T03:51:27.405Z,36.00
2018-08-12T03:52:27.390Z,36.00
2018-08-12T03:53:27.372Z,44.00
2018-08-12T03:54:27.357Z,52.00
2018-08-12T03:55:27.342Z,52.00
2018-08-12T03:56:27.325Z,60.00
2018-08-12T03:57:27.305Z,72.00
2018-08-12T03:58:27.292Z,76.00
2018-08-12T03:59:27.274Z,84.00
2018-08-12T04:00:27.255Z,96.00
2018-08-12T04:01:27.240Z,104.00
2018-08-12T04:02:27.308Z,112.00
2018-08-12T04:03:27.211Z,128.00
2018-08-12T04:04:27.200Z,140.00
2018-08-12T04:05:27.179Z,152.00
2018-08-12T04:06:27.159Z,164.00
2018-08-12T04:07:27.140Z,176.00
2018-08-12T04:08:27.274Z,192.00
2018-08-12T04:09:27.103Z,208.00
2018-08-12T04:10:27.088Z,224.00
2018-08-12T04:11:27.097Z,248.00
2018-08-12T04:12:27.060Z,268.00
2018-08-12T04:13:27.037Z,292.00
2018-08-12T04:14:27.019Z,312.00
2018-08-12T04:15:27.009Z,336.00
2018-08-12T04:16:26.989Z,360.00
2018-08-12T04:17:26.968Z,380.00
2018-08-12T04:18:26.954Z,412.00
2018-08-12T04:19:26.939Z,444.00
2018-08-12T04:20:26.928Z,472.00
2018-08-12T04:21:26.902Z,508.00
2018-08-12T04:22:26.884Z,552.00
2018-08-12T04:23:26.870Z,600.00
2018-08-12T04:24:26.856Z,652.00
2018-08-12T04:25:26.838Z,696.00
2018-08-12T04:26:26.820Z,724.00
2018-08-12T04:27:26.930Z,744.00
2018-08-12T04:28:26.788Z,776.00
2018-08-12T04:29:26.770Z,812.00
2018-08-12T04:30:26.800Z,860.00
2018-08-12T04:31:26.738Z,912.00
2018-08-12T04:32:26.718Z,956.00
2018-08-12T04:33:26.700Z,996.00
2018-08-12T04:34:26.691Z,1044.00
2018-08-12T04:35:26.668Z,1092.00
2018-08-12T04:36:26.653Z,1112.00
2018-08-12T04:37:26.638Z,1136.00
2018-08-12T04:38:26.619Z,1192.00
2018-08-12T04:39:26.602Z,1272.00
2018-08-12T04:40:26.717Z,1356.00
2018-08-12T04:41:26.568Z,1432.00
2018-08-12T04:42:26.552Z,1520.00
2018-08-12T04:43:26.537Z,1592.00
2018-08-12T04:44:26.520Z,1624.00
2018-08-12T04:45:26.500Z,1660.00
2018-08-12T04:46:26.486Z,1672.00
2018-08-12T04:47:26.469Z,1688.00
2018-08-12T04:48:26.451Z,1692.00
2018-08-12T04:49:26.435Z,1704.00
2018-08-12T04:50:26.416Z,1744.00
2018-08-12T04:51:26.399Z,1812.00
2018-08-12T04:52:26.390Z,1876.00
2018-08-12T04:53:26.363Z,1968.00
2018-08-12T04:54:26.356Z,2068.00
2018-08-12T04:55:26.335Z,2172.00
2018-08-12T04:56:26.315Z,2280.00
2018-08-12T04:57:26.296Z,2408.00
2018-08-12T04:58:26.295Z,2580.00
2018-08-12T04:59:26.262Z,2744.00
2018-08-12T05:00:26.255Z,2884.00
2018-08-12T05:01:26.228Z,2980.00
2018-08-12T05:02:26.214Z,3100.00
2018-08-12T05:03:26.197Z,3220.00
2018-08-12T05:04:26.182Z,3384.00
2018-08-12T05:05:26.159Z,3572.00
2018-08-12T05:06:26.145Z,3784.00
2018-08-12T05:07:26.125Z,3936.00
2018-08-12T05:08:26.121Z,4088.00
2018-08-12T05:09:26.096Z,4180.00
2018-08-12T05:10:26.227Z,4280.00
2018-08-12T05:11:26.076Z,4372.00
2018-08-12T05:12:26.043Z,4448.00
2018-08-12T05:13:26.025Z,4500.00
2018-08-12T05:14:26.017Z,4612.00
2018-08-12T05:15:25.993Z,4724.00
2018-08-12T05:16:25.981Z,4852.00
2018-08-12T05:17:25.956Z,5004.00
2018-08-12T05:18:25.939Z,5140.00
2018-08-12T05:19:25.930Z,5256.00
2018-08-12T05:20:25.920Z,5420.00
2018-08-12T05:21:25.888Z,5648.00
2018-08-12T05:22:25.874Z,6044.00
2018-08-12T05:23:25.861Z,6496.00
2018-08-12T05:24:25.849Z,6816.00
2018-08-12T05:25:25.824Z,7052.00
2018-08-12T05:26:25.806Z,7216.00
2018-08-12T05:27:25.790Z,7316.00
2018-08-12T05:28:25.774Z,7212.00
2018-08-12T05:29:25.883Z,7140.00
2018-08-12T05:30:25.740Z,7156.00
2018-08-12T05:31:25.726Z,7284.00
2018-08-12T05:32:25.816Z,7696.00
2018-08-12T05:33:25.691Z,8548.00
2018-08-12T05:34:25.675Z,14368.00
2018-08-12T05:35:25.664Z,24768.00
2018-08-12T05:36:25.643Z,27008.00
2018-08-12T05:37:25.627Z,28960.00
2018-08-12T05:38:25.609Z,27264.00
2018-08-12T05:39:25.596Z,20448.00
2018-08-12T05:40:25.587Z,13584.00
2018-08-12T05:41:25.564Z,19776.00
2018-08-12T05:42:25.547Z,22816.00
2018-08-12T05:43:25.534Z,13840.00
2018-08-12T05:44:25.520Z,12524.00
2018-08-12T05:45:25.503Z,11116.00
2018-08-12T05:46:25.488Z,11612.00
2018-08-12T05:47:25.474Z,12292.00
2018-08-12T05:48:25.456Z,17056.00
2018-08-12T05:49:25.442Z,26432.00
2018-08-12T05:50:25.427Z,25856.00
2018-08-12T05:51:25.509Z,19456.00
2018-08-12T05:52:25.401Z,19072.00
2018-08-12T05:53:25.382Z,25376.00
2018-08-12T05:54:25.376Z,15744.00
2018-08-12T05:55:25.360Z,13932.00
2018-08-12T05:56:25.343Z,17856.00
2018-08-12T05:57:25.328Z,21248.00
2018-08-12T05:58:25.318Z,25952.00
2018-08-12T05:59:25.366Z,18080.00
2018-08-12T06:00:25.291Z,31328.00
2018-08-12T06:01:25.271Z,22272.00
2018-08-12T06:02:25.258Z,19744.00
2018-08-12T06:03:25.251Z,28832.00
2018-08-12T06:04:25.231Z,16736.00
2018-08-12T06:05:25.220Z,15060.00
2018-08-12T06:06:25.210Z,25728.00
2018-08-12T06:07:25.190Z,25696.00
2018-08-12T06:08:25.175Z,33568.00
2018-08-12T06:09:25.165Z,37152.00
2018-08-12T06:10:25.149Z,38496.00
2018-08-12T06:11:25.139Z,39840.00
2018-08-12T06:12:25.125Z,38208.00
2018-08-12T06:13:25.111Z,36512.00
2018-08-12T06:14:25.098Z,36544.00
2018-08-12T06:15:25.088Z,37056.00
2018-08-12T06:16:25.074Z,36224.00
2018-08-12T06:17:25.127Z,35968.00
2018-08-12T06:18:25.048Z,35296.00
2018-08-12T06:19:25.039Z,34976.00
2018-08-12T06:20:25.025Z,34144.00
2018-08-12T06:21:25.012Z,33216.00
2018-08-12T06:22:25.016Z,34784.00
2018-08-12T06:23:25.001Z,25856.00
2018-08-12T06:24:24.985Z,17728.00
2018-08-12T06:25:24.966Z,16160.00
2018-08-12T06:26:24.962Z,13968.00
2018-08-12T06:27:24.946Z,16032.00
2018-08-12T06:28:24.931Z,13248.00
2018-08-12T06:29:24.927Z,14084.00
2018-08-12T06:30:24.908Z,11412.00
2018-08-12T06:31:24.900Z,11396.00
2018-08-12T06:32:24.922Z,11268.00
2018-08-12T06:33:24.874Z,32864.00
2018-08-12T06:34:24.896Z,17280.00
2018-08-12T06:35:24.851Z,26496.00
2018-08-12T06:36:24.840Z,39456.00
2018-08-12T06:37:24.825Z,46176.00
2018-08-12T06:38:24.814Z,44224.00
2018-08-12T06:39:24.805Z,42208.00
2018-08-12T06:40:24.791Z,42144.00
2018-08-12T06:41:24.781Z,49888.00
2018-08-12T06:42:24.768Z,49600.00
2018-08-12T06:43:24.756Z,49600.00
2018-08-12T06:44:24.756Z,53472.00
2018-08-12T06:45:24.732Z,52352.00
2018-08-12T06:46:24.757Z,54400.00
2018-08-12T06:47:24.710Z,48512.00
2018-08-12T06:48:24.702Z,30720.00
2018-08-12T06:49:24.694Z,25120.00
2018-08-12T06:50:24.683Z,24224.00
2018-08-12T06:51:24.666Z,31136.00
2018-08-12T06:52:24.657Z,10500.00
2018-08-12T06:53:24.645Z,29504.00
2018-08-12T06:54:24.636Z,9144.00
2018-08-12T06:55:24.626Z,8924.00
2018-08-12T06:56:24.616Z,7228.00
2018-08-12T06:57:24.604Z,9632.00
2018-08-12T06:58:24.596Z,6932.00
2018-08-12T06:59:24.583Z,7720.00
2018-08-12T07:00:24.584Z,14268.00
2018-08-12T07:01:24.559Z,23584.00
2018-08-12T07:02:24.560Z,17568.00
2018-08-12T07:03:24.539Z,30656.00
2018-08-12T07:04:24.534Z,21376.00
2018-08-12T07:05:24.532Z,16128.00
2018-08-12T07:06:24.505Z,5836.00
2018-08-12T07:07:24.496Z,6456.00
2018-08-12T07:08:24.482Z,6412.00
2018-08-12T07:09:24.472Z,11072.00
2018-08-12T07:10:24.468Z,5780.00
2018-08-12T07:11:24.447Z,6312.00
2018-08-12T07:12:24.436Z,6236.00
2018-08-12T07:13:24.425Z,6260.00
2018-08-12T07:14:24.570Z,6268.00
2018-08-12T07:15:24.401Z,6300.00
2018-08-12T07:16:24.388Z,6492.00
2018-08-12T07:17:24.376Z,6496.00
2018-08-12T07:18:24.364Z,6840.00
2018-08-12T07:19:24.353Z,7192.00
2018-08-12T07:20:24.345Z,7340.00
2018-08-12T07:21:24.335Z,7756.00
2018-08-12T07:22:24.417Z,8244.00
2018-08-12T07:23:24.316Z,8948.00
2018-08-12T07:24:24.294Z,9640.00
2018-08-12T07:25:24.278Z,12868.00
2018-08-12T07:26:24.275Z,15660.00
2018-08-12T07:27:24.258Z,49056.00
2018-08-12T07:28:24.249Z,61632.00
2018-08-12T07:29:24.230Z,8852.00
2018-08-12T07:30:24.220Z,19264.00
2018-08-12T07:31:24.208Z,14072.00
2018-08-12T07:32:24.194Z,22240.00
2018-08-12T07:33:24.188Z,9472.00
2018-08-12T07:34:24.169Z,7900.00
2018-08-12T07:35:24.185Z,8664.00
2018-08-12T07:36:24.154Z,8420.00
2018-08-12T07:37:24.137Z,24992.00
2018-08-12T07:38:24.132Z,10044.00
2018-08-12T07:39:24.114Z,9328.00
2018-08-12T07:40:24.110Z,9704.00
2018-08-12T07:41:24.093Z,9880.00
2018-08-12T07:42:24.077Z,11940.00
2018-08-12T07:43:24.076Z,13836.00
2018-08-12T07:44:24.055Z,11684.00
2018-08-12T07:45:24.073Z,11496.00
2018-08-12T07:46:24.036Z,16756.00
2018-08-12T07:47:24.018Z,16524.00
2018-08-12T07:48:24.011Z,46016.00
2018-08-12T07:49:24.000Z,23072.00
2018-08-12T07:50:23.983Z,34400.00
2018-08-12T07:51:23.974Z,45440.00
2018-08-12T07:52:23.964Z,52096.00
2018-08-12T07:53:23.963Z,27744.00
2018-08-12T07:54:23.993Z,30528.00
2018-08-12T07:55:23.929Z,25344.00
2018-08-12T07:56:23.925Z,34496.00
2018-08-12T07:57:23.907Z,24032.00
2018-08-12T07:58:23.902Z,40800.00
2018-08-12T07:59:23.889Z,15884.00
2018-08-12T08:00:23.878Z,17632.00
2018-08-12T08:01:23.868Z,19680.00
2018-08-12T08:02:23.858Z,21472.00
2018-08-12T08:03:23.848Z,32256.00
2018-08-12T08:04:23.841Z,23680.00
2018-08-12T08:05:23.830Z,25824.00
2018-08-12T08:06:23.954Z,35168.00
2018-08-12T08:07:23.807Z,25856.00
2018-08-12T08:08:23.803Z,25792.00
2018-08-12T08:09:23.792Z,25600.00
2018-08-12T08:10:23.789Z,25632.00
2018-08-12T08:11:23.768Z,25536.00
2018-08-12T08:12:23.810Z,27520.00
2018-08-12T08:13:23.759Z,24320.00
2018-08-12T08:14:23.749Z,25536.00
2018-08-12T08:15:23.882Z,25024.00
2018-08-12T08:16:23.722Z,26912.00
2018-08-12T08:17:23.715Z,25952.00
2018-08-12T08:18:23.703Z,25504.00
2018-08-12T08:19:23.696Z,24416.00
2018-08-12T08:20:23.686Z,24384.00
2018-08-12T08:21:23.674Z,23776.00
2018-08-12T08:22:23.667Z,23040.00
2018-08-12T08:23:23.656Z,22944.00
2018-08-12T08:24:23.648Z,21984.00
2018-08-12T08:25:23.714Z,22048.00
2018-08-12T08:26:23.629Z,22112.00
2018-08-12T08:27:23.620Z,22112.00
2018-08-12T08:28:23.610Z,21728.00
2018-08-12T08:29:23.609Z,21408.00
2018-08-12T08:30:23.589Z,20480.00
2018-08-12T08:31:23.634Z,20160.00
2018-08-12T08:32:23.573Z,19904.00
2018-08-12T08:33:23.561Z,19936.00
2018-08-12T08:34:23.555Z,19072.00
2018-08-12T08:35:23.543Z,19136.00
2018-08-12T08:36:23.534Z,18304.00
2018-08-12T08:37:23.522Z,17632.00
2018-08-12T08:38:23.513Z,17008.00
2018-08-12T08:39:23.505Z,14700.00
2018-08-12T08:40:23.493Z,14120.00
2018-08-12T08:41:23.483Z,13040.00
2018-08-12T08:42:23.474Z,14036.00
2018-08-12T08:43:23.464Z,15300.00
2018-08-12T08:44:23.463Z,15252.00
2018-08-12T08:45:23.445Z,12392.00
2018-08-12T08:46:23.444Z,11548.00
2018-08-12T08:47:23.424Z,11372.00
2018-08-12T08:48:23.414Z,11296.00
2018-08-12T08:49:23.403Z,11008.00
2018-08-12T08:50:23.393Z,10872.00
2018-08-12T08:51:23.395Z,11144.00
2018-08-12T08:52:23.382Z,11104.00
2018-08-12T08:53:23.362Z,12060.00
2018-08-12T08:54:23.354Z,11424.00
2018-08-12T08:55:23.452Z,11812.00
2018-08-12T08:56:23.333Z,14320.00
2018-08-12T08:57:23.322Z,12480.00
2018-08-12T08:58:23.312Z,12716.00
2018-08-12T08:59:23.306Z,25952.00
2018-08-12T09:00:23.295Z,14244.00
2018-08-12T09:01:23.332Z,13996.00
2018-08-12T09:02:23.271Z,13856.00
2018-08-12T09:03:23.261Z,15144.00
2018-08-12T09:04:23.249Z,14712.00
2018-08-12T09:05:23.248Z,15192.00
2018-08-12T09:06:23.228Z,15556.00
2018-08-12T09:07:23.219Z,18656.00
2018-08-12T09:08:23.412Z,17952.00
2018-08-12T09:09:23.209Z,39360.00
2018-08-12T09:10:23.187Z,73120.00
2018-08-12T09:11:23.178Z,54784.00
2018-08-12T09:12:23.184Z,18016.00
2018-08-12T09:13:23.158Z,79296.00
2018-08-12T09:14:23.149Z,77248.00
2018-08-12T09:15:23.140Z,77408.00
2018-08-12T09:16:23.130Z,12768.00
2018-08-12T09:17:23.121Z,64544.00
2018-08-12T09:18:23.170Z,22464.00
2018-08-12T09:19:23.105Z,72448.00
2018-08-12T09:20:23.097Z,48384.00
2018-08-12T09:21:23.097Z,29984.00
2018-08-12T09:22:23.080Z,70688.00
2018-08-12T09:23:23.077Z,71360.00
2018-08-12T09:25:07.248Z,30464.00
2018-08-12T09:26:07.240Z,85344.00
2018-08-12T09:27:07.241Z,30592.00
2018-08-12T09:28:07.227Z,17952.00
2018-08-12T09:29:07.219Z,31360.00
2018-08-12T09:30:07.209Z,39264.00
2018-08-12T09:31:07.203Z,52064.00
2018-08-12T09:32:07.207Z,115040.00
2018-08-12T09:33:07.199Z,22816.00
2018-08-12T09:34:07.185Z,25408.00
2018-08-12T09:35:07.176Z,37600.00
2018-08-12T09:36:07.176Z,56448.00
2018-08-12T09:37:07.169Z,21664.00
2018-08-12T09:38:07.157Z,21728.00
2018-08-12T09:39:07.151Z,22624.00
2018-08-12T09:40:07.147Z,23200.00
2018-08-12T09:41:07.151Z,87104.00
2018-08-12T09:42:07.139Z,89152.00
2018-08-12T09:43:07.170Z,24416.00
2018-08-12T09:44:07.119Z,18496.00
2018-08-12T09:45:07.126Z,44544.00
2018-08-12T09:46:07.104Z,20992.00
2018-08-12T09:47:07.101Z,33216.00
2018-08-12T09:48:07.101Z,96896.00
2018-08-12T09:49:07.088Z,97312.00
2018-08-12T09:50:07.088Z,95296.00
2018-08-12T09:51:07.209Z,95680.00
2018-08-12T09:52:07.076Z,91616.00
2018-08-12T09:53:07.068Z,93824.00
2018-08-12T09:54:07.073Z,80128.00
2018-08-12T09:55:07.062Z,81504.00
2018-08-12T09:56:07.064Z,84256.00
2018-08-12T09:57:07.055Z,85728.00
2018-08-12T09:58:07.052Z,87808.00
2018-08-12T09:59:07.051Z,90656.00
2018-08-12T10:00:07.056Z,96512.00
2018-08-12T10:01:07.043Z,90272.00
2018-08-12T10:02:07.052Z,88288.00
2018-08-12T10:03:07.039Z,89504.00
2018-08-12T10:04:07.157Z,89152.00
2018-08-12T10:05:07.040Z,87936.00
2018-08-12T10:06:07.039Z,83104.00
2018-08-12T10:07:07.041Z,83008.00
2018-08-12T10:08:07.039Z,88608.00
2018-08-12T10:09:07.039Z,94304.00
2018-08-12T10:10:07.036Z,96448.00
2018-08-12T10:11:07.036Z,98624.00
2018-08-12T10:12:07.037Z,94560.00
2018-08-12T10:13:07.043Z,97920.00
2018-08-12T10:14:07.041Z,101056.00
2018-08-12T10:15:07.041Z,103552.00
2018-08-12T10:16:07.040Z,106592.00
2018-08-12T10:17:07.048Z,101984.00
2018-08-12T10:18:07.042Z,102816.00
2018-08-12T10:19:07.043Z,104416.00
2018-08-12T10:21:07.575Z,102208.00
2018-08-12T10:22:07.056Z,103008.00
2018-08-12T10:23:07.052Z,105536.00
2018-08-12T10:24:07.051Z,106080.00
2018-08-12T10:25:07.124Z,107136.00
2018-08-12T10:26:07.058Z,105728.00
2018-08-12T10:27:07.062Z,112448.00
2018-08-12T10:28:07.080Z,113888.00
2018-08-12T10:29:07.080Z,112352.00
2018-08-12T10:30:07.072Z,101184.00
2018-08-12T10:31:07.085Z,90624.00
2018-08-12T10:32:07.077Z,96032.00
2018-08-12T10:33:07.090Z,93920.00
2018-08-12T10:34:07.090Z,91584.00
2018-08-12T10:35:07.093Z,85408.00
2018-08-12T10:36:07.092Z,59488.00
2018-08-12T10:37:07.092Z,103584.00
2018-08-12T10:38:07.123Z,110560.00
2018-08-12T10:39:07.097Z,109088.00
2018-08-12T10:40:07.123Z,107616.00
2018-08-12T10:41:07.116Z,101472.00
2018-08-12T10:42:07.112Z,97632.00
2018-08-12T10:43:07.119Z,101376.00
2018-08-12T10:44:07.119Z,103904.00
2018-08-12T10:45:07.117Z,99872.00
2018-08-12T10:46:07.124Z,101760.00
2018-08-12T10:47:07.144Z,103360.00
2018-08-12T10:48:07.183Z,102720.00
2018-08-12T10:49:07.133Z,100896.00
2018-08-12T10:50:07.136Z,99584.00
2018-08-12T10:51:07.195Z,98592.00
2018-08-12T10:52:07.147Z,103200.00
2018-08-12T10:53:07.155Z,101056.00
2018-08-12T10:54:07.156Z,98368.00
2018-08-12T10:55:07.170Z,95488.00
2018-08-12T10:56:07.162Z,97152.00
2018-08-12T10:57:07.194Z,99008.00
2018-08-12T10:58:07.173Z,98240.00
2018-08-12T10:59:07.178Z,98720.00
2018-08-12T11:00:07.181Z,97696.00
2018-08-12T11:01:07.188Z,95200.00
2018-08-12T11:02:07.212Z,91360.00
2018-08-12T11:03:07.204Z,89248.00
2018-08-12T11:04:07.204Z,90304.00
2018-08-12T11:05:07.205Z,89472.00
2018-08-12T11:06:07.370Z,88448.00
2018-08-12T11:07:07.225Z,91776.00
2018-08-12T11:08:07.223Z,90336.00
2018-08-12T11:09:07.228Z,90112.00
2018-08-12T11:10:07.234Z,87200.00
2018-08-12T11:11:07.238Z,84832.00
2018-08-12T11:12:07.241Z,84160.00
2018-08-12T11:13:07.262Z,84448.00
2018-08-12T11:14:07.256Z,82464.00
2018-08-12T11:15:07.266Z,80064.00
2018-08-12T11:16:07.388Z,85344.00
2018-08-12T11:17:07.264Z,81856.00
2018-08-12T11:18:07.267Z,82752.00
2018-08-12T11:19:07.355Z,79936.00
2018-08-12T11:20:07.280Z,79808.00
2018-08-12T11:21:07.300Z,76896.00
2018-08-12T11:22:07.295Z,76576.00
2018-08-12T11:23:07.292Z,74880.00
2018-08-12T11:24:07.296Z,70368.00
2018-08-12T11:25:07.304Z,70848.00
2018-08-12T11:26:07.303Z,74592.00
2018-08-12T11:27:07.332Z,79520.00
2018-08-12T11:28:07.313Z,78624.00
2018-08-12T11:29:07.350Z,79456.00
2018-08-12T11:30:07.335Z,79872.00
2018-08-12T11:31:07.322Z,79424.00
2018-08-12T11:32:07.333Z,74464.00
2018-08-12T11:33:07.330Z,71904.00
2018-08-12T11:34:07.357Z,67840.00
2018-08-12T11:35:07.343Z,58176.00
2018-08-12T11:36:07.354Z,46688.00
2018-08-12T11:37:07.349Z,58592.00
2018-08-12T11:38:07.349Z,58400.00
2018-08-12T11:39:07.354Z,62176.00
2018-08-12T11:40:07.357Z,63776.00
2018-08-12T11:41:07.443Z,49856.00
2018-08-12T11:42:07.363Z,53856.00
2018-08-12T11:43:07.366Z,58976.00
2018-08-12T11:44:07.368Z,61760.00
2018-08-12T11:45:07.369Z,64256.00
2018-08-12T11:46:07.372Z,64032.00
2018-08-12T11:47:07.523Z,68896.00
2018-08-12T11:48:07.380Z,71136.00
2018-08-12T11:49:07.389Z,70048.00
2018-08-12T11:50:08.596Z,71040.00
2018-08-12T11:51:07.396Z,74752.00
2018-08-12T11:52:07.393Z,77728.00
2018-08-12T11:53:07.391Z,77824.00
2018-08-12T11:54:07.392Z,77600.00
2018-08-12T11:55:07.390Z,81344.00
2018-08-12T11:56:07.383Z,88480.00
2018-08-12T11:57:07.387Z,64416.00
2018-08-12T11:58:07.388Z,23520.00
2018-08-12T11:59:07.382Z,15220.00
2018-08-12T12:00:07.488Z,14036.00
2018-08-12T12:01:07.389Z,13220.00
2018-08-12T12:02:07.405Z,12352.00
2018-08-12T12:03:07.390Z,11952.00
2018-08-12T12:04:07.399Z,11848.00
2018-08-12T12:05:07.383Z,11556.00
2018-08-12T12:06:07.382Z,10888.00
2018-08-12T12:07:07.388Z,11052.00
2018-08-12T12:08:07.376Z,11012.00
2018-08-12T12:09:07.376Z,11512.00
2018-08-12T12:10:07.376Z,11696.00
2018-08-12T12:11:07.367Z,11744.00
2018-08-12T12:12:07.382Z,11884.00
2018-08-12T12:13:07.436Z,12216.00
2018-08-12T12:14:07.367Z,12040.00
2018-08-12T12:15:07.400Z,11388.00
2018-08-12T12:16:07.358Z,10832.00
2018-08-12T12:17:07.353Z,10528.00